Terminal Aerodrome Forecast
Issued by NWS

Home | Current Version | Previous Version | Text Only | Print | Product List | Glossary Off
Versions: 1 2 3 4 5 6 7 8 9 10 11 12 13 14 15 16 17 18 19

711
FTUS43 KABR 220055 AAA
TAFMBG
TAF AMD
KMBG 220055Z 2201/2224 33010KT P6SM VCSH BKN100
     FM220300 VRB06KT P6SM BKN110
     FM221400 33010KT P6SM VCSH BKN090
     FM221800 35015G23KT P6SM BKN060=

USA.gov is the U.S. government's official web portal to all federal, state and local government web resources and services.